»·PEaware :: N80991 KMHV-KSBD

N80991 :: KMHV-KSBD

FLIGHT INFORMATION

Flight Status: Arrived
Operator: Privately registered:
United States
More flights under this callsign
Pilot: Patrick P. (19681)
Aircraft: BEECH AIRCRAFT DEBONAIR BONANZA
(BE33)
More flights by this aircraft type
Origin: KMHV Mojave
United States
Destination: KSBD San Bernardino Intl
United States
More flights between these airports :: More routes between these airports
Route: KWJF
File this flight plan on PilotEdge
Remarks:
Altitude:
(Current/Filed)
9,500ft
Speed:
(Current/Filed)
170kts
Departed: 18-Sep-18 05:28 PM
Arrived: 18-Sep-18 06:06 PM
Distance/Time
Traveled:
73nm/0:38
Distance/Time
To Go:
Arrived

Flight Plot

Page will automatically refresh every two minutes.

Flight plan parsing failed; only flown route is shown


Map Options




Map Legend


Flown Route
Filed Route
Departure Airport
Arrival Airport
Navaid (VOR, NDB)
Fix

Horizontal Profiles

Position Reports

Time Latitude Longitude Heading Altitude Ground
Speed
18-Sep-18 17:16 35.056591 -118.150072 359 2794ft 0kts
18-Sep-18 17:17 35.056591 -118.150072 359 2794ft 0kts
18-Sep-18 17:18 35.056591 -118.150072 359 2794ft 0kts
18-Sep-18 17:19 35.056591 -118.150072 359 2794ft 0kts
18-Sep-18 17:20 35.056591 -118.150072 359 2794ft 0kts
18-Sep-18 17:21 35.056591 -118.150072 359 2794ft 0kts
18-Sep-18 17:22 35.057008 -118.149878 36 2795ft 10kts
18-Sep-18 17:23 35.057602 -118.143060 88 2794ft 1kts
18-Sep-18 17:24 35.057570 -118.142947 107 2794ft 2kts
18-Sep-18 17:25 35.057840 -118.142597 351 2794ft 0kts
18-Sep-18 17:26 35.057841 -118.142597 352 2794ft 0kts
18-Sep-18 17:27 35.057841 -118.142597 352 2794ft 0kts
18-Sep-18 17:28 35.058284 -118.142632 356 2794ft 0kts
18-Sep-18 17:29 35.058284 -118.142632 356 2794ft 0kts
18-Sep-18 17:30 35.059190 -118.145775 272 2795ft 65kts
18-Sep-18 17:31 35.059158 -118.167741 272 3186ft 93kts
18-Sep-18 17:32 35.045332 -118.186992 199 3938ft 111kts
18-Sep-18 17:33 35.015593 -118.188970 185 4749ft 114kts
18-Sep-18 17:34 34.984191 -118.192248 195 5397ft 119kts
18-Sep-18 17:35 34.951364 -118.192804 183 5996ft 115kts
18-Sep-18 17:36 34.920467 -118.189930 177 6578ft 117kts
18-Sep-18 17:37 34.891818 -118.195593 198 7169ft 111kts
18-Sep-18 17:38 34.861629 -118.198350 185 7774ft 114kts
18-Sep-18 17:39 34.831572 -118.201831 196 8377ft 108kts
18-Sep-18 17:40 34.801962 -118.206908 193 8882ft 111kts
18-Sep-18 17:41 34.771860 -118.210973 190 9373ft 112kts
18-Sep-18 17:42 34.739982 -118.214362 164 9594ft 130kts
18-Sep-18 17:43 34.717108 -118.175125 120 9573ft 157kts
18-Sep-18 17:44 34.700638 -118.125014 117 9438ft 170kts
18-Sep-18 17:45 34.679707 -118.079614 122 9654ft 160kts
18-Sep-18 17:46 34.657168 -118.032423 123 9451ft 171kts
18-Sep-18 17:47 34.637239 -117.983165 116 9510ft 167kts
18-Sep-18 17:48 34.620749 -117.931565 126 9380ft 169kts
18-Sep-18 17:49 34.592189 -117.890846 128 9375ft 167kts
18-Sep-18 17:50 34.568160 -117.845733 127 9450ft 161kts
18-Sep-18 17:51 34.543930 -117.800342 126 9449ft 161kts
18-Sep-18 17:52 34.520280 -117.757143 127 9522ft 158kts
18-Sep-18 17:53 34.497307 -117.711687 134 9453ft 161kts
18-Sep-18 17:54 34.468409 -117.673903 136 9514ft 157kts
18-Sep-18 17:55 34.438034 -117.634440 136 9155ft 174kts
18-Sep-18 17:56 34.404120 -117.592676 141 8653ft 179kts
18-Sep-18 17:57 34.368356 -117.553265 138 8121ft 185kts
18-Sep-18 17:58 34.332438 -117.512217 136 7634ft 184kts
18-Sep-18 17:59 34.292096 -117.477658 148 7084ft 186kts
18-Sep-18 18:00 34.251113 -117.441313 147 6480ft 188kts
18-Sep-18 18:01 34.212721 -117.401892 145 5940ft 192kts
18-Sep-18 18:02 34.172576 -117.364894 139 5423ft 192kts
18-Sep-18 18:03 34.134464 -117.330243 158 4306ft 176kts
18-Sep-18 18:04 34.108053 -117.285753 128 3374ft 132kts
18-Sep-18 18:05 34.112360 -117.248700 68 2527ft 112kts
18-Sep-18 18:06 34.119400 -117.213774 92 2230ft 108kts
18-Sep-18 18:07 34.102598 -117.210213 249 1433ft 80kts
18-Sep-18 18:08 34.097036 -117.228951 250 1161ft 37kts
18-Sep-18 18:09 34.095308 -117.235477 288 1160ft 11kts
18-Sep-18 18:10 34.095979 -117.236143 332 1160ft 0kts
18-Sep-18 18:11 34.096011 -117.236163 330 1160ft 1kts

Navigation Log

Ident Type
Flight plan parsing failed, navigation log unavailable